createdAt,value
2018-08-09T00:02:00.942Z,14.60
2018-08-09T00:04:30.915Z,14.60
2018-08-09T00:07:00.336Z,14.60
2018-08-09T00:09:29.973Z,14.60
2018-08-09T00:12:00.190Z,14.60
2018-08-09T00:14:29.686Z,14.70
2018-08-09T00:16:59.024Z,14.80
2018-08-09T00:19:28.870Z,14.90
2018-08-09T00:21:58.638Z,15.00
2018-08-09T00:24:28.203Z,15.10
2018-08-09T00:26:57.959Z,15.10
2018-08-09T00:29:27.993Z,15.20
2018-08-09T00:31:58.056Z,15.20
2018-08-09T00:34:27.456Z,15.20
2018-08-09T00:36:57.990Z,15.20
2018-08-09T00:39:28.362Z,15.20
2018-08-09T00:41:57.872Z,15.30
2018-08-09T00:44:27.392Z,15.30
2018-08-09T00:46:57.445Z,15.40
2018-08-09T00:49:26.872Z,15.40
2018-08-09T00:51:56.366Z,15.40
2018-08-09T00:54:25.830Z,15.40
2018-08-09T00:56:56.020Z,15.50
2018-08-09T00:59:25.433Z,15.50
2018-08-09T01:01:55.398Z,15.60
2018-08-09T01:04:24.713Z,15.60
2018-08-09T01:06:55.068Z,15.70
2018-08-09T01:09:24.384Z,15.70
2018-08-09T01:11:54.346Z,15.70
2018-08-09T01:14:23.570Z,15.70
2018-08-09T01:16:52.821Z,15.70
2018-08-09T01:19:23.314Z,15.70
2018-08-09T01:21:53.134Z,15.80
2018-08-09T01:24:22.979Z,15.80
2018-08-09T01:26:52.863Z,15.80
2018-08-09T01:29:22.292Z,15.80
2018-08-09T01:31:52.093Z,15.90
2018-08-09T01:34:21.817Z,15.90
2018-08-09T01:36:51.761Z,16.00
2018-08-09T01:39:21.758Z,16.00
2018-08-09T01:42:03.960Z,16.10
2018-08-09T01:44:34.071Z,16.10
2018-08-09T01:47:03.585Z,16.10
2018-08-09T01:49:34.313Z,16.20
2018-08-09T01:52:04.619Z,16.20
2018-08-09T01:54:34.115Z,16.20
2018-08-09T01:57:03.616Z,16.30
2018-08-09T01:59:33.550Z,16.40
2018-08-09T02:02:03.072Z,16.40
2018-08-09T02:04:32.866Z,16.40
2018-08-09T02:07:02.828Z,16.40
2018-08-09T02:09:33.278Z,16.40
2018-08-09T02:12:04.282Z,16.30
2018-08-09T02:14:34.910Z,16.30
2018-08-09T02:17:04.270Z,16.30
2018-08-09T02:19:33.569Z,16.30
2018-08-09T02:22:03.425Z,16.30
2018-08-09T02:24:33.454Z,16.30
2018-08-09T02:27:03.312Z,16.30
2018-08-09T02:29:33.250Z,16.40
2018-08-09T02:32:02.793Z,16.40
2018-08-09T02:34:32.391Z,16.40
2018-08-09T02:37:01.998Z,16.40
2018-08-09T02:39:32.138Z,16.40
2018-08-09T02:42:01.749Z,16.40
2018-08-09T02:44:31.228Z,16.30
2018-08-09T02:47:00.875Z,16.40
2018-08-09T02:49:31.281Z,16.40
2018-08-09T02:52:01.454Z,16.40
2018-08-09T02:54:31.420Z,16.40
2018-08-09T02:57:01.061Z,16.40
2018-08-09T02:59:31.397Z,16.50
2018-08-09T03:02:01.086Z,16.50
2018-08-09T03:04:32.097Z,16.40
2018-08-09T03:07:01.766Z,16.40
2018-08-09T03:09:31.874Z,16.40
2018-08-09T03:12:02.170Z,16.40
2018-08-09T03:14:32.784Z,16.40
2018-08-09T03:17:02.521Z,16.40
2018-08-09T03:19:31.887Z,16.40
2018-08-09T03:22:02.386Z,16.40
2018-08-09T03:24:32.397Z,16.50
2018-08-09T03:27:02.285Z,16.50
2018-08-09T03:29:32.963Z,16.50
2018-08-09T03:32:02.629Z,16.50
2018-08-09T03:34:32.079Z,16.60
2018-08-09T03:37:01.793Z,16.60
2018-08-09T03:39:32.088Z,16.60
2018-08-09T03:42:02.224Z,16.60
2018-08-09T03:44:32.272Z,16.60
2018-08-09T03:47:01.978Z,16.60
2018-08-09T03:49:31.592Z,16.60
2018-08-09T03:52:01.216Z,16.60
2018-08-09T03:54:31.389Z,16.50
2018-08-09T03:57:02.049Z,16.50
2018-08-09T03:59:31.798Z,16.40
2018-08-09T04:02:02.633Z,16.30
2018-08-09T04:04:32.378Z,16.30
2018-08-09T04:07:03.225Z,16.10
2018-08-09T04:09:33.042Z,16.00
2018-08-09T04:12:03.388Z,16.00
2018-08-09T04:14:32.856Z,15.90
2018-08-09T04:17:06.947Z,15.90
2018-08-09T04:19:36.916Z,15.80
2018-08-09T04:22:06.781Z,15.80
2018-08-09T04:24:36.640Z,15.70
2018-08-09T04:27:06.296Z,15.70
2018-08-09T04:29:36.970Z,15.70
2018-08-09T04:32:06.522Z,15.60
2018-08-09T04:34:36.575Z,15.60
2018-08-09T04:37:07.225Z,15.50
2018-08-09T04:39:37.448Z,15.50
2018-08-09T04:42:07.682Z,15.50
2018-08-09T04:44:37.270Z,15.40
2018-08-09T04:47:06.970Z,15.30
2018-08-09T04:49:36.528Z,15.30
2018-08-09T04:52:06.237Z,15.20
2018-08-09T04:54:35.893Z,15.30
2018-08-09T04:57:05.247Z,15.30
2018-08-09T04:59:35.793Z,15.30
2018-08-09T05:02:06.333Z,15.30
2018-08-09T05:04:36.319Z,15.30
2018-08-09T05:07:06.233Z,15.30
2018-08-09T05:09:36.231Z,15.40
2018-08-09T05:12:06.233Z,15.40
2018-08-09T05:14:36.026Z,15.50
2018-08-09T05:17:05.585Z,15.50
2018-08-09T05:19:35.684Z,15.60
2018-08-09T05:22:05.273Z,15.60
2018-08-09T05:24:35.084Z,15.80
2018-08-09T05:27:04.584Z,15.90
2018-08-09T05:29:34.843Z,16.10
2018-08-09T05:32:04.583Z,16.20
2018-08-09T05:34:34.315Z,16.30
2018-08-09T05:37:04.499Z,16.50
2018-08-09T05:39:34.417Z,16.50
2018-08-09T05:42:04.147Z,16.50
2018-08-09T05:44:33.629Z,16.60
2018-08-09T05:47:03.369Z,16.60
2018-08-09T05:49:33.254Z,16.60
2018-08-09T05:52:03.141Z,16.60
2018-08-09T05:54:33.424Z,16.70
2018-08-09T05:57:03.227Z,16.80
2018-08-09T05:59:33.975Z,16.80
2018-08-09T06:02:03.756Z,16.90
2018-08-09T06:04:33.389Z,17.00
2018-08-09T06:07:02.954Z,17.00
2018-08-09T06:09:32.768Z,17.10
2018-08-09T06:12:02.810Z,17.20
2018-08-09T06:14:32.437Z,17.20
2018-08-09T06:17:01.853Z,17.20
2018-08-09T06:19:31.329Z,17.20
2018-08-09T06:22:01.709Z,17.30
2018-08-09T06:24:31.461Z,17.30
2018-08-09T06:27:01.475Z,17.30
2018-08-09T06:29:30.854Z,17.30
2018-08-09T06:32:00.600Z,17.40
2018-08-09T06:34:31.148Z,17.40
2018-08-09T06:37:00.668Z,17.50
2018-08-09T06:39:30.300Z,17.50
2018-08-09T06:42:00.100Z,17.60
2018-08-09T06:44:29.636Z,17.70
2018-08-09T06:46:59.788Z,17.70
2018-08-09T06:49:29.969Z,17.70
2018-08-09T06:51:59.983Z,17.90
2018-08-09T06:54:30.170Z,17.90
2018-08-09T06:56:59.911Z,18.10
2018-08-09T06:59:29.596Z,18.20
2018-08-09T07:01:59.621Z,18.30
2018-08-09T07:04:30.289Z,18.40
2018-08-09T07:07:00.124Z,18.50
2018-08-09T07:09:29.751Z,18.60
2018-08-09T07:11:59.254Z,18.80
2018-08-09T07:14:28.737Z,18.90
2018-08-09T07:16:58.454Z,19.10
2018-08-09T07:19:27.812Z,19.20
2018-08-09T07:21:58.118Z,19.30
2018-08-09T07:24:28.476Z,19.40
2018-08-09T07:26:58.067Z,19.50
2018-08-09T07:29:27.379Z,19.60
2018-08-09T07:31:56.737Z,19.80
2018-08-09T07:34:26.656Z,19.90
2018-08-09T07:36:55.976Z,20.20
2018-08-09T07:39:25.929Z,20.40
2018-08-09T07:41:56.306Z,20.50
2018-08-09T07:44:25.844Z,20.70
2018-08-09T07:46:55.431Z,20.70
2018-08-09T07:49:25.717Z,20.80
2018-08-09T07:51:55.474Z,20.80
2018-08-09T07:54:25.837Z,20.70
2018-08-09T07:56:55.561Z,20.60
2018-08-09T07:59:25.366Z,20.50
2018-08-09T08:01:54.828Z,20.40
2018-08-09T08:04:24.289Z,20.30
2018-08-09T08:06:53.942Z,20.30
2018-08-09T08:09:23.206Z,20.20
2018-08-09T08:11:52.926Z,20.20
2018-08-09T08:14:22.981Z,20.20
2018-08-09T08:16:52.515Z,20.30
2018-08-09T08:19:22.379Z,20.30
2018-08-09T08:21:51.940Z,20.30
2018-08-09T08:24:21.444Z,20.40
2018-08-09T08:26:50.833Z,20.50
2018-08-09T08:29:21.107Z,20.60
2018-08-09T08:31:51.388Z,20.70
2018-08-09T08:34:21.024Z,20.80
2018-08-09T08:36:50.901Z,20.90
2018-08-09T08:39:20.432Z,20.90
2018-08-09T08:41:50.098Z,20.90
2018-08-09T08:44:19.645Z,20.90
2018-08-09T08:46:49.592Z,21.00
2018-08-09T08:49:19.104Z,21.00
2018-08-09T08:51:50.227Z,21.00
2018-08-09T08:54:19.888Z,20.90
2018-08-09T08:56:50.355Z,20.90
2018-08-09T08:59:20.046Z,21.00
2018-08-09T09:01:50.478Z,21.00
2018-08-09T09:04:21.080Z,21.00
2018-08-09T09:09:13.120Z,21.10
2018-08-09T09:11:43.318Z,21.10
2018-08-09T09:14:12.934Z,21.10
2018-08-09T09:16:43.835Z,21.10
2018-08-09T09:19:14.368Z,21.20
2018-08-09T09:21:44.066Z,21.30
2018-08-09T09:24:13.684Z,21.40
2018-08-09T09:26:43.332Z,21.50
2018-08-09T09:29:13.011Z,21.50
2018-08-09T09:31:44.055Z,21.50
2018-08-09T09:34:14.547Z,21.30
2018-08-09T09:36:45.775Z,21.30
2018-08-09T09:39:15.667Z,21.20
2018-08-09T09:41:45.688Z,21.20
2018-08-09T09:44:15.215Z,21.10
2018-08-09T09:46:46.121Z,21.10
2018-08-09T09:49:15.821Z,21.00
2018-08-09T09:51:45.549Z,20.90
2018-08-09T09:54:17.052Z,20.70
2018-08-09T09:56:47.059Z,20.60
2018-08-09T09:59:18.198Z,20.40
2018-08-09T10:01:48.878Z,20.30
2018-08-09T10:04:18.918Z,20.20
2018-08-09T10:06:48.621Z,20.20
2018-08-09T10:09:18.571Z,20.10
2018-08-09T10:11:48.357Z,20.10
2018-08-09T10:14:17.871Z,19.90
2018-08-09T10:16:48.436Z,19.90
2018-08-09T10:19:17.940Z,19.80
2018-08-09T10:21:47.638Z,19.80
2018-08-09T10:24:19.483Z,19.70
2018-08-09T10:26:57.374Z,19.70
2018-08-09T10:29:27.084Z,19.60
2018-08-09T10:31:58.262Z,19.60
2018-08-09T10:34:28.149Z,19.60
2018-08-09T10:36:58.104Z,19.60
2018-08-09T10:39:28.387Z,19.50
2018-08-09T10:41:57.990Z,19.40
2018-08-09T10:44:27.708Z,19.30
2018-08-09T10:46:57.293Z,19.30
2018-08-09T10:49:27.759Z,19.20
2018-08-09T10:51:57.430Z,19.10
2018-08-09T10:54:27.286Z,19.00
2018-08-09T10:56:58.517Z,18.70
2018-08-09T10:59:28.728Z,18.60
2018-08-09T11:01:58.308Z,18.60
2018-08-09T11:04:28.474Z,18.50
2018-08-09T11:06:58.120Z,18.40
2018-08-09T11:09:29.248Z,18.40
2018-08-09T11:11:58.850Z,18.30
2018-08-09T11:14:29.138Z,18.20
2018-08-09T11:16:59.662Z,18.20
2018-08-09T11:19:29.232Z,18.30
2018-08-09T11:21:58.577Z,18.20
2018-08-09T11:24:28.932Z,18.30
2018-08-09T11:26:59.324Z,18.30
2018-08-09T11:29:29.332Z,18.40
2018-08-09T11:31:58.890Z,18.40
2018-08-09T11:34:28.701Z,18.30
2018-08-09T11:36:59.421Z,18.10
2018-08-09T11:39:29.011Z,18.00
2018-08-09T11:41:58.974Z,18.00
2018-08-09T11:44:29.127Z,17.80
2018-08-09T11:46:59.506Z,17.80
2018-08-09T11:49:29.652Z,17.80
2018-08-09T11:51:59.923Z,17.80
2018-08-09T11:54:29.880Z,17.70
2018-08-09T11:56:59.518Z,17.60
2018-08-09T11:59:31.205Z,17.60
2018-08-09T12:02:01.158Z,17.50
2018-08-09T12:04:32.088Z,17.50
2018-08-09T12:07:02.081Z,17.50
2018-08-09T12:09:32.494Z,17.50
2018-08-09T12:12:02.185Z,17.50
2018-08-09T12:14:31.936Z,17.60
2018-08-09T12:17:02.118Z,17.60
2018-08-09T12:19:31.923Z,17.60
2018-08-09T12:22:01.677Z,17.70
2018-08-09T12:24:31.489Z,17.70
2018-08-09T12:27:01.558Z,17.70
2018-08-09T12:29:32.617Z,17.70
2018-08-09T12:32:02.361Z,17.80
2018-08-09T12:34:32.212Z,17.80
2018-08-09T12:37:02.172Z,17.90
2018-08-09T12:39:32.568Z,17.90
2018-08-09T12:42:02.394Z,17.90
2018-08-09T12:44:32.301Z,17.80
2018-08-09T12:47:02.293Z,17.80
2018-08-09T12:49:31.856Z,17.80
2018-08-09T12:52:01.980Z,17.80
2018-08-09T12:54:32.432Z,17.80
2018-08-09T12:57:02.286Z,17.70
2018-08-09T12:59:33.213Z,17.70
2018-08-09T13:02:03.851Z,17.70
2018-08-09T13:04:33.540Z,17.70
2018-08-09T13:07:03.317Z,17.70
2018-08-09T13:09:34.146Z,17.80
2018-08-09T13:12:03.855Z,17.80
2018-08-09T13:14:34.381Z,17.80
2018-08-09T13:17:04.714Z,17.80
2018-08-09T13:19:34.236Z,17.80
2018-08-09T13:22:05.037Z,17.70
2018-08-09T13:24:35.154Z,17.70
2018-08-09T13:27:06.124Z,17.60
2018-08-09T13:29:36.487Z,17.60
2018-08-09T13:32:06.815Z,17.60
2018-08-09T13:34:37.534Z,17.70
2018-08-09T13:37:07.734Z,17.70
2018-08-09T13:39:38.174Z,17.80
2018-08-09T13:42:07.986Z,17.90
2018-08-09T13:44:38.493Z,17.90
2018-08-09T13:47:08.865Z,18.00
2018-08-09T13:49:38.888Z,18.00
2018-08-09T13:52:10.401Z,18.10
2018-08-09T13:54:40.046Z,18.30
2018-08-09T13:57:09.494Z,18.40
2018-08-09T13:59:39.627Z,18.40
2018-08-09T14:02:09.444Z,18.30
2018-08-09T14:04:39.378Z,18.30
2018-08-09T14:07:10.195Z,18.30
2018-08-09T14:09:39.728Z,18.20
2018-08-09T14:12:09.915Z,18.10
2018-08-09T14:14:41.858Z,18.10
2018-08-09T14:17:11.861Z,18.10
2018-08-09T14:19:42.363Z,18.10
2018-08-09T14:22:12.021Z,18.20
2018-08-09T14:24:42.577Z,18.20
2018-08-09T14:27:12.344Z,18.20
2018-08-09T14:29:42.227Z,18.20
2018-08-09T14:32:12.218Z,18.40
2018-08-09T14:34:41.868Z,18.30
2018-08-09T14:37:11.362Z,18.40
2018-08-09T14:39:41.072Z,18.40
2018-08-09T14:42:10.889Z,18.60
2018-08-09T14:44:41.036Z,18.60
2018-08-09T14:47:10.524Z,18.70
2018-08-09T14:49:40.232Z,18.90
2018-08-09T14:52:09.796Z,19.00
2018-08-09T14:54:40.049Z,19.10
2018-08-09T14:57:10.823Z,19.00
2018-08-09T14:59:41.763Z,19.00
2018-08-09T15:02:12.211Z,19.00
2018-08-09T15:04:41.894Z,19.10
2018-08-09T15:07:11.385Z,19.20
2018-08-09T15:09:42.245Z,19.30
2018-08-09T15:12:13.330Z,19.40
2018-08-09T15:14:43.920Z,19.40
2018-08-09T15:17:13.767Z,19.40
2018-08-09T15:19:44.469Z,19.50
2018-08-09T15:22:14.861Z,19.40
2018-08-09T15:24:44.637Z,19.10
2018-08-09T15:27:14.348Z,18.80
2018-08-09T15:29:43.944Z,18.60
2018-08-09T15:32:13.762Z,18.50
2018-08-09T15:34:43.818Z,18.60
2018-08-09T15:37:14.142Z,18.70
2018-08-09T15:39:44.513Z,18.70
2018-08-09T15:42:13.993Z,18.70
2018-08-09T15:44:43.515Z,18.50
2018-08-09T15:47:12.972Z,18.40
2018-08-09T15:49:43.374Z,18.30
2018-08-09T15:52:12.658Z,18.20
2018-08-09T15:54:42.220Z,18.10
2018-08-09T15:57:13.134Z,17.90
2018-08-09T15:59:42.620Z,17.80
2018-08-09T16:02:12.107Z,17.90
2018-08-09T16:04:41.530Z,17.80
2018-08-09T16:07:10.954Z,17.80
2018-08-09T16:09:40.449Z,17.80
2018-08-09T16:12:10.142Z,17.90
2018-08-09T16:14:39.937Z,18.10
2018-08-09T16:17:10.257Z,18.20
2018-08-09T16:19:41.674Z,18.30
2018-08-09T16:22:13.118Z,18.30
2018-08-09T16:24:43.441Z,18.30
2018-08-09T16:27:14.658Z,18.40
2018-08-09T16:29:44.480Z,18.50
2018-08-09T16:32:15.022Z,18.50
2018-08-09T16:34:44.651Z,18.50
2018-08-09T16:37:15.241Z,18.30
2018-08-09T16:39:45.535Z,18.30
2018-08-09T16:42:15.443Z,18.30
2018-08-09T16:44:45.266Z,18.40
2018-08-09T16:47:15.025Z,18.40
2018-08-09T16:49:44.656Z,18.40
2018-08-09T16:52:14.368Z,18.40
2018-08-09T16:54:44.016Z,18.40
2018-08-09T16:57:13.770Z,18.40
2018-08-09T16:59:43.620Z,18.30
2018-08-09T17:02:13.810Z,18.20
2018-08-09T17:04:43.539Z,18.20
2018-08-09T17:07:14.396Z,18.10
2018-08-09T17:09:44.328Z,18.10
2018-08-09T17:12:14.360Z,18.10
2018-08-09T17:14:44.682Z,18.10
2018-08-09T17:17:14.294Z,18.00
2018-08-09T17:19:44.201Z,18.00
2018-08-09T17:22:15.212Z,18.00
2018-08-09T17:24:45.998Z,17.90
2018-08-09T17:27:15.858Z,17.90
2018-08-09T17:29:45.601Z,17.70
2018-08-09T17:32:15.226Z,17.60
2018-08-09T17:34:45.118Z,17.50
2018-08-09T17:37:14.905Z,17.40
2018-08-09T17:39:45.469Z,17.30
2018-08-09T17:42:15.284Z,17.20
2018-08-09T17:44:46.038Z,17.10
2018-08-09T17:47:16.431Z,17.00
2018-08-09T17:49:46.309Z,17.00
2018-08-09T17:52:17.079Z,16.90
2018-08-09T17:54:47.197Z,16.80
2018-08-09T17:57:19.433Z,16.80
2018-08-09T17:59:50.978Z,16.70
2018-08-09T18:02:20.499Z,16.70
2018-08-09T18:04:50.415Z,16.70
2018-08-09T18:07:20.409Z,16.60
2018-08-09T18:09:50.370Z,16.50
2018-08-09T18:12:20.197Z,16.50
2018-08-09T18:14:50.467Z,16.50
2018-08-09T18:17:20.661Z,16.40
2018-08-09T18:19:50.354Z,16.40
2018-08-09T18:22:20.207Z,16.40
2018-08-09T18:24:49.963Z,16.40
2018-08-09T18:27:19.877Z,16.30
2018-08-09T18:29:50.397Z,16.30
2018-08-09T18:32:21.567Z,16.30
2018-08-09T18:34:51.619Z,16.30
2018-08-09T18:37:21.575Z,16.30
2018-08-09T18:39:51.403Z,16.30
2018-08-09T18:42:21.561Z,16.30
2018-08-09T18:44:51.714Z,16.30
2018-08-09T18:47:22.120Z,16.20
2018-08-09T18:49:53.263Z,16.10
2018-08-09T18:52:23.106Z,16.00
2018-08-09T18:54:52.544Z,15.90
2018-08-09T18:57:22.808Z,15.80
2018-08-09T18:59:52.543Z,15.80
2018-08-09T19:02:24.276Z,15.70
2018-08-09T19:04:53.892Z,15.70
2018-08-09T19:07:24.631Z,15.60
2018-08-09T19:09:54.406Z,15.60
2018-08-09T19:12:24.512Z,15.50
2018-08-09T19:14:54.445Z,15.50
2018-08-09T19:17:24.125Z,15.50
2018-08-09T19:19:54.010Z,15.50
2018-08-09T19:22:23.945Z,15.50
2018-08-09T19:24:53.789Z,15.50
2018-08-09T19:27:23.794Z,15.50
2018-08-09T19:29:54.275Z,15.50
2018-08-09T19:32:24.333Z,15.50
2018-08-09T19:34:54.596Z,15.50
2018-08-09T19:37:25.764Z,15.50
2018-08-09T19:39:55.635Z,15.40
2018-08-09T19:42:25.661Z,15.40
2018-08-09T19:44:55.907Z,15.30
2018-08-09T19:47:25.554Z,15.30
2018-08-09T19:49:55.874Z,15.20
2018-08-09T19:52:27.485Z,15.20
2018-08-09T19:54:57.311Z,15.10
2018-08-09T19:57:27.023Z,15.10
2018-08-09T19:59:56.546Z,15.10
2018-08-09T20:02:26.259Z,15.00
2018-08-09T20:04:55.874Z,15.00
2018-08-09T20:07:25.552Z,15.00
2018-08-09T20:09:55.721Z,15.00
2018-08-09T20:12:25.360Z,15.00
2018-08-09T20:14:55.192Z,15.00
2018-08-09T20:17:25.059Z,15.00
2018-08-09T20:19:54.598Z,14.90
2018-08-09T20:22:24.980Z,14.90
2018-08-09T20:24:55.834Z,15.00
2018-08-09T20:27:26.390Z,15.00
2018-08-09T20:29:56.704Z,14.90
2018-08-09T20:32:27.082Z,14.90
2018-08-09T20:34:56.612Z,14.90
2018-08-09T20:37:26.388Z,14.90
2018-08-09T20:39:56.204Z,14.90
2018-08-09T20:42:25.942Z,14.90
2018-08-09T20:44:55.470Z,14.80
2018-08-09T20:47:26.200Z,14.80
2018-08-09T20:49:55.799Z,14.80
2018-08-09T20:52:25.526Z,14.70
2018-08-09T20:54:55.604Z,14.70
2018-08-09T20:57:25.382Z,14.60
2018-08-09T20:59:54.888Z,14.60
2018-08-09T21:02:24.854Z,14.50
2018-08-09T21:04:55.066Z,14.40
2018-08-09T21:07:25.068Z,14.40
2018-08-09T21:09:54.902Z,14.40
2018-08-09T21:12:24.472Z,14.40
2018-08-09T21:14:54.329Z,14.30
2018-08-09T21:17:24.113Z,14.30
2018-08-09T21:19:53.564Z,14.20
2018-08-09T21:22:23.481Z,14.20
2018-08-09T21:24:53.767Z,14.10
2018-08-09T21:27:24.076Z,14.10
2018-08-09T21:29:54.294Z,14.00
2018-08-09T21:32:24.404Z,14.00
2018-08-09T21:34:54.891Z,13.90
2018-08-09T21:37:24.524Z,13.90
2018-08-09T21:39:54.026Z,13.80
2018-08-09T21:42:23.891Z,13.80
2018-08-09T21:44:53.464Z,13.80
2018-08-09T21:47:23.037Z,13.70
2018-08-09T21:49:52.578Z,13.60
2018-08-09T21:52:22.209Z,13.60
2018-08-09T21:54:52.323Z,13.70
2018-08-09T21:57:21.935Z,13.70
2018-08-09T21:59:51.502Z,13.60
2018-08-09T22:02:21.789Z,13.60
2018-08-09T22:04:56.505Z,13.60
2018-08-09T22:07:31.495Z,13.50
2018-08-09T22:10:06.717Z,13.50
2018-08-09T22:12:41.485Z,13.50
2018-08-09T22:15:16.431Z,13.50
2018-08-09T22:17:51.323Z,13.50
2018-08-09T22:20:26.013Z,13.50
2018-08-09T22:22:55.465Z,13.50
2018-08-09T22:25:24.902Z,13.50
2018-08-09T22:27:54.488Z,13.50
2018-08-09T22:30:24.408Z,13.40
2018-08-09T22:32:54.186Z,13.30
2018-08-09T22:35:23.662Z,13.30
2018-08-09T22:37:53.335Z,13.30
2018-08-09T22:40:23.212Z,13.30
2018-08-09T22:42:52.874Z,13.30
2018-08-09T22:45:22.519Z,13.40
2018-08-09T22:47:52.689Z,13.40
2018-08-09T22:50:22.322Z,13.40
2018-08-09T22:52:52.102Z,13.40
2018-08-09T22:55:22.451Z,13.40
2018-08-09T22:57:52.006Z,13.50
2018-08-09T23:00:23.941Z,13.50
2018-08-09T23:02:53.631Z,13.50
2018-08-09T23:05:23.208Z,13.60
2018-08-09T23:07:52.937Z,13.60
2018-08-09T23:10:22.541Z,13.60
2018-08-09T23:12:52.285Z,13.60
2018-08-09T23:15:22.117Z,13.60
2018-08-09T23:17:51.621Z,13.70
2018-08-09T23:20:21.548Z,13.60
2018-08-09T23:22:51.337Z,13.60
2018-08-09T23:25:21.530Z,13.60
2018-08-09T23:27:51.270Z,13.50
2018-08-09T23:30:21.058Z,13.50
2018-08-09T23:32:50.720Z,13.40
2018-08-09T23:35:20.400Z,13.40
2018-08-09T23:37:50.631Z,13.40
2018-08-09T23:40:20.383Z,13.30
2018-08-09T23:42:50.034Z,13.40
2018-08-09T23:45:19.476Z,13.40
2018-08-09T23:47:49.222Z,13.30
2018-08-09T23:50:19.345Z,13.40
2018-08-09T23:52:49.077Z,13.40
2018-08-09T23:55:18.665Z,13.40
2018-08-09T23:57:48.694Z,13.30
